sensor_id;sensor_type;location;lat;lon;timestamp;pressure;altitude;pressure_sealevel;temperature;humidity
25156;BME280;21913;52.456;13.634;2023-04-02T00:07:26;99651.41;;;12.44;78.62
25156;BME280;21913;52.456;13.634;2023-04-02T00:12:28;99654.00;;;12.44;78.79
25156;BME280;21913;52.456;13.634;2023-04-02T00:17:30;99662.63;;;12.45;78.78
25156;BME280;21913;52.456;13.634;2023-04-02T00:22:31;99677.34;;;12.44;78.69
25156;BME280;21913;52.456;13.634;2023-04-02T00:27:34;99686.88;;;12.44;78.73
25156;BME280;21913;52.456;13.634;2023-04-02T00:32:36;99698.94;;;12.45;78.68
25156;BME280;21913;52.456;13.634;2023-04-02T00:37:38;99700.69;;;12.44;78.49
25156;BME280;21913;52.456;13.634;2023-04-02T00:42:39;99711.94;;;12.45;78.67
25156;BME280;21913;52.456;13.634;2023-04-02T00:47:41;99718.84;;;12.44;78.69
25156;BME280;21913;52.456;13.634;2023-04-02T00:52:45;99725.78;;;12.45;78.66
25156;BME280;21913;52.456;13.634;2023-04-02T00:57:49;99738.75;;;12.44;78.56
25156;BME280;21913;52.456;13.634;2023-04-02T01:03:14;99746.53;;;12.44;78.64
25156;BME280;21913;52.456;13.634;2023-04-02T01:24:37;99784.59;;;12.43;78.69
25156;BME280;21913;52.456;13.634;2023-04-02T01:29:43;99784.59;;;12.43;78.49
25156;BME280;21913;52.456;13.634;2023-04-02T01:34:48;99807.09;;;12.43;78.45
25156;BME280;21913;52.456;13.634;2023-04-02T01:45:23;99829.59;;;12.42;78.49
25156;BME280;21913;52.456;13.634;2023-04-02T01:50:33;99836.50;;;12.43;78.60
25156;BME280;21913;52.456;13.634;2023-04-02T02:00:47;99857.25;;;12.43;78.46
25156;BME280;21913;52.456;13.634;2023-04-02T02:05:50;99865.94;;;12.42;78.50
25156;BME280;21913;52.456;13.634;2023-04-02T02:10:52;99877.16;;;12.43;78.45
25156;BME280;21913;52.456;13.634;2023-04-02T02:15:59;99885.81;;;12.42;78.44
25156;BME280;21913;52.456;13.634;2023-04-02T02:21:03;99886.69;;;12.42;78.42
25156;BME280;21913;52.456;13.634;2023-04-02T02:26:10;99894.47;;;12.42;78.45
25156;BME280;21913;52.456;13.634;2023-04-02T02:31:19;99907.44;;;12.42;78.54
25156;BME280;21913;52.456;13.634;2023-04-02T02:36:30;99909.19;;;12.42;78.48
25156;BME280;21913;52.456;13.634;2023-04-02T02:41:45;99921.28;;;12.41;78.41
25156;BME280;21913;52.456;13.634;2023-04-02T02:46:53;99937.72;;;12.42;78.28
25156;BME280;21913;52.456;13.634;2023-04-02T02:52:00;99946.38;;;12.41;78.37
25156;BME280;21913;52.456;13.634;2023-04-02T02:57:18;99954.16;;;12.41;78.35
25156;BME280;21913;52.456;13.634;2023-04-02T03:02:23;99965.44;;;12.40;78.32
25156;BME280;21913;52.456;13.634;2023-04-02T03:07:26;99973.19;;;12.41;78.39
25156;BME280;21913;52.456;13.634;2023-04-02T03:12:40;99981.84;;;12.40;78.38
25156;BME280;21913;52.456;13.634;2023-04-02T03:23:18;100000.00;;;12.40;78.25
25156;BME280;21913;52.456;13.634;2023-04-02T03:28:26;100010.41;;;12.40;78.17
25156;BME280;21913;52.456;13.634;2023-04-02T03:33:37;100027.69;;;12.40;78.15
25156;BME280;21913;52.456;13.634;2023-04-02T03:44:22;100047.56;;;12.39;78.27
25156;BME280;21913;52.456;13.634;2023-04-02T03:49:42;100057.94;;;12.39;78.22
25156;BME280;21913;52.456;13.634;2023-04-02T03:54:47;100067.47;;;12.38;78.19
25156;BME280;21913;52.456;13.634;2023-04-02T04:00:12;100083.03;;;12.40;78.10
25156;BME280;21913;52.456;13.634;2023-04-02T04:05:27;100089.97;;;12.40;78.09
25156;BME280;21913;52.456;13.634;2023-04-02T04:10:33;100108.97;;;12.38;78.12
25156;BME280;21913;52.456;13.634;2023-04-02T04:20:43;100118.50;;;12.38;78.22
25156;BME280;21913;52.456;13.634;2023-04-02T04:26:12;100143.56;;;12.39;78.24
25156;BME280;21913;52.456;13.634;2023-04-02T04:31:46;100153.09;;;12.38;78.17
25156;BME280;21913;52.456;13.634;2023-04-02T04:36:52;100160.00;;;12.38;78.10
25156;BME280;21913;52.456;13.634;2023-04-02T04:41:59;100176.44;;;12.38;78.04
25156;BME280;21913;52.456;13.634;2023-04-02T04:47:10;100198.06;;;12.39;78.22
25156;BME280;21913;52.456;13.634;2023-04-02T04:52:26;100210.19;;;12.37;78.06
25156;BME280;21913;52.456;13.634;2023-04-02T04:57:33;100214.50;;;12.38;78.05
25156;BME280;21913;52.456;13.634;2023-04-02T05:02:47;100221.44;;;12.37;77.96
25156;BME280;21913;52.456;13.634;2023-04-02T05:07:55;100235.25;;;12.38;78.01
25156;BME280;21913;52.456;13.634;2023-04-02T05:13:14;100256.00;;;12.38;78.00
25156;BME280;21913;52.456;13.634;2023-04-02T05:23:49;100268.13;;;12.37;77.87
25156;BME280;21913;52.456;13.634;2023-04-02T05:29:14;100291.47;;;12.37;77.96
25156;BME280;21913;52.456;13.634;2023-04-02T05:34:26;100298.41;;;12.37;78.05
25156;BME280;21913;52.456;13.634;2023-04-02T05:39:30;100307.94;;;12.36;78.01
25156;BME280;21913;52.456;13.634;2023-04-02T05:44:37;100312.25;;;12.37;78.02
25156;BME280;21913;52.456;13.634;2023-04-02T05:49:41;100333.00;;;12.36;78.01
25156;BME280;21913;52.456;13.634;2023-04-02T05:55:03;100345.13;;;12.35;77.97
25156;BME280;21913;52.456;13.634;2023-04-02T06:00:14;100371.94;;;12.36;78.07
25156;BME280;21913;52.456;13.634;2023-04-02T06:05:23;100378.84;;;12.35;78.00
25156;BME280;21913;52.456;13.634;2023-04-02T06:10:30;100384.91;;;12.36;77.97
25156;BME280;21913;52.456;13.634;2023-04-02T06:15:35;100387.50;;;12.36;78.03
25156;BME280;21913;52.456;13.634;2023-04-02T06:20:45;100393.56;;;12.35;77.89
25156;BME280;21913;52.456;13.634;2023-04-02T06:31:24;100430.75;;;12.35;77.87
25156;BME280;21913;52.456;13.634;2023-04-02T06:36:29;100439.41;;;12.34;77.91
25156;BME280;21913;52.456;13.634;2023-04-02T06:41:36;100450.66;;;12.35;77.88
25156;BME280;21913;52.456;13.634;2023-04-02T06:47:27;100466.22;;;12.35;77.90
25156;BME280;21913;52.456;13.634;2023-04-02T06:52:51;100464.47;;;12.32;77.81
25156;BME280;21913;52.456;13.634;2023-04-02T06:57:54;100486.94;;;12.33;77.96
25156;BME280;21913;52.456;13.634;2023-04-02T07:02:57;100493.00;;;12.34;77.86
25156;BME280;21913;52.456;13.634;2023-04-02T07:07:59;100505.13;;;12.33;77.92
25156;BME280;21913;52.456;13.634;2023-04-02T07:13:01;100515.50;;;12.33;78.09
25156;BME280;21913;52.456;13.634;2023-04-02T07:18:03;100526.72;;;12.34;77.90
25156;BME280;21913;52.456;13.634;2023-04-02T07:23:05;100536.25;;;12.33;77.83
25156;BME280;21913;52.456;13.634;2023-04-02T07:28:06;100552.69;;;12.34;77.84
25156;BME280;21913;52.456;13.634;2023-04-02T07:33:20;100569.97;;;12.33;77.78
25156;BME280;21913;52.456;13.634;2023-04-02T07:38:22;100576.91;;;12.33;77.89
25156;BME280;21913;52.456;13.634;2023-04-02T07:43:24;100592.47;;;12.33;77.81
25156;BME280;21913;52.456;13.634;2023-04-02T07:48:25;100597.66;;;12.33;77.89
25156;BME280;21913;52.456;13.634;2023-04-02T07:53:31;100595.06;;;12.33;77.91
25156;BME280;21913;52.456;13.634;2023-04-02T07:58:33;100606.31;;;12.32;77.74
25156;BME280;21913;52.456;13.634;2023-04-02T08:03:35;100621.00;;;12.33;77.79
25156;BME280;21913;52.456;13.634;2023-04-02T08:08:36;100624.47;;;12.32;77.75
25156;BME280;21913;52.456;13.634;2023-04-02T08:13:38;100638.31;;;12.32;77.82
25156;BME280;21913;52.456;13.634;2023-04-02T08:18:39;100648.69;;;12.32;77.72
25156;BME280;21913;52.456;13.634;2023-04-02T08:23:41;100657.34;;;12.31;77.79
25156;BME280;21913;52.456;13.634;2023-04-02T08:28:43;100666.00;;;12.30;77.83
25156;BME280;21913;52.456;13.634;2023-04-02T08:33:44;100668.59;;;12.32;77.68
25156;BME280;21913;52.456;13.634;2023-04-02T08:38:46;100689.34;;;12.30;77.72
25156;BME280;21913;52.456;13.634;2023-04-02T08:43:53;100695.41;;;12.31;77.57
25156;BME280;21913;52.456;13.634;2023-04-02T08:48:58;100708.38;;;12.34;76.92
25156;BME280;21913;52.456;13.634;2023-04-02T08:54:17;100722.22;;;12.37;76.87
25156;BME280;21913;52.456;13.634;2023-04-02T08:59:42;100720.50;;;12.35;77.00
25156;BME280;21913;52.456;13.634;2023-04-02T09:04:44;100737.78;;;12.33;76.89
25156;BME280;21913;52.456;13.634;2023-04-02T09:09:47;100743.84;;;12.32;77.11
25156;BME280;21913;52.456;13.634;2023-04-02T09:20:13;100760.28;;;12.32;77.25
25156;BME280;21913;52.456;13.634;2023-04-02T09:25:27;100764.59;;;12.32;77.27
25156;BME280;21913;52.456;13.634;2023-04-02T09:30:39;100772.38;;;12.32;77.40
25156;BME280;21913;52.456;13.634;2023-04-02T09:51:14;100813.91;;;12.30;77.57
25156;BME280;21913;52.456;13.634;2023-04-02T10:01:29;100824.28;;;12.29;77.39
25156;BME280;21913;52.456;13.634;2023-04-02T10:06:33;100832.06;;;12.29;77.42
25156;BME280;21913;52.456;13.634;2023-04-02T10:11:35;100838.91;;;12.21;71.93
25156;BME280;21913;52.456;13.634;2023-04-02T10:16:52;100847.13;;;11.68;67.33
25156;BME280;21913;52.456;13.634;2023-04-02T10:21:57;100865.28;;;11.68;67.79
25156;BME280;21913;52.456;13.634;2023-04-02T10:27:10;100874.88;;;11.79;68.37
25156;BME280;21913;52.456;13.634;2023-04-02T10:48:45;100903.66;;;12.02;70.93
25156;BME280;21913;52.456;13.634;2023-04-02T10:53:53;100896.75;;;12.04;71.32
25156;BME280;21913;52.456;13.634;2023-04-02T11:04:25;100913.16;;;12.06;71.62
25156;BME280;21913;52.456;13.634;2023-04-02T11:09:31;100916.66;;;12.08;71.71
25156;BME280;21913;52.456;13.634;2023-04-02T11:14:33;100929.63;;;12.08;71.93
25156;BME280;21913;52.456;13.634;2023-04-02T11:19:35;100946.06;;;12.10;72.19
25156;BME280;21913;52.456;13.634;2023-04-02T11:24:53;100934.81;;;12.10;72.35
25156;BME280;21913;52.456;13.634;2023-04-02T11:30:05;100936.56;;;12.11;72.66
25156;BME280;21913;52.456;13.634;2023-04-02T11:45:52;100958.19;;;12.11;72.74
25156;BME280;21913;52.456;13.634;2023-04-02T11:50:55;100961.63;;;12.10;72.94
25156;BME280;21913;52.456;13.634;2023-04-02T12:06:32;100972.00;;;12.12;73.13
25156;BME280;21913;52.456;13.634;2023-04-02T12:11:39;100985.84;;;12.11;73.26
25156;BME280;21913;52.456;13.634;2023-04-02T12:16:41;100994.50;;;12.11;73.39
25156;BME280;21913;52.456;13.634;2023-04-02T12:21:45;101010.94;;;12.12;73.34
25156;BME280;21913;52.456;13.634;2023-04-02T12:26:47;101017.84;;;12.11;73.44
25156;BME280;21913;52.456;13.634;2023-04-02T12:31:49;101023.03;;;12.11;73.67
25156;BME280;21913;52.456;13.634;2023-04-02T12:36:59;101022.19;;;12.13;73.79
25156;BME280;21913;52.456;13.634;2023-04-02T12:42:01;101016.09;;;12.10;73.89
25156;BME280;21913;52.456;13.634;2023-04-02T12:47:03;101027.34;;;12.11;73.97
25156;BME280;21913;52.456;13.634;2023-04-02T12:52:10;101028.22;;;12.11;74.11
25156;BME280;21913;52.456;13.634;2023-04-02T13:02:29;101056.75;;;12.11;74.29
25156;BME280;21913;52.456;13.634;2023-04-02T13:07:32;101047.25;;;12.10;74.20
25156;BME280;21913;52.456;13.634;2023-04-02T13:12:36;101060.22;;;12.10;74.20
25156;BME280;21913;52.456;13.634;2023-04-02T13:22:41;101064.53;;;12.11;74.28
25156;BME280;21913;52.456;13.634;2023-04-02T13:27:42;101059.34;;;12.10;74.45
25156;BME280;21913;52.456;13.634;2023-04-02T13:32:44;101063.66;;;12.09;74.39
25156;BME280;21913;52.456;13.634;2023-04-02T13:37:46;101065.41;;;12.10;74.47
25156;BME280;21913;52.456;13.634;2023-04-02T13:42:48;101068.84;;;12.09;74.44
25156;BME280;21913;52.456;13.634;2023-04-02T13:47:50;101074.03;;;12.09;74.57
25156;BME280;21913;52.456;13.634;2023-04-02T13:52:52;101082.69;;;12.10;74.55
25156;BME280;21913;52.456;13.634;2023-04-02T13:57:55;101090.47;;;12.10;74.56
25156;BME280;21913;52.456;13.634;2023-04-02T14:03:13;101096.53;;;12.09;74.49
25156;BME280;21913;52.456;13.634;2023-04-02T14:29:45;101114.69;;;12.09;74.54
25156;BME280;21913;52.456;13.634;2023-04-02T14:40:39;101111.22;;;12.08;74.63
25156;BME280;21913;52.456;13.634;2023-04-02T14:51:01;101119.00;;;12.08;74.64
25156;BME280;21913;52.456;13.634;2023-04-02T14:56:06;101129.38;;;12.08;74.56
25156;BME280;21913;52.456;13.634;2023-04-02T15:01:19;101134.56;;;12.08;74.58
25156;BME280;21913;52.456;13.634;2023-04-02T15:06:25;101138.03;;;12.09;74.66
25156;BME280;21913;52.456;13.634;2023-04-02T15:11:32;101147.53;;;12.10;74.64
25156;BME280;21913;52.456;13.634;2023-04-02T15:16:36;101155.31;;;12.08;74.77
25156;BME280;21913;52.456;13.634;2023-04-02T15:22:03;101158.78;;;12.09;74.73
25156;BME280;21913;52.456;13.634;2023-04-02T15:27:32;101158.78;;;12.09;74.73
25156;BME280;21913;52.456;13.634;2023-04-02T15:32:37;101165.69;;;12.08;74.88
25156;BME280;21913;52.456;13.634;2023-04-02T15:38:13;101172.63;;;12.09;74.70
25156;BME280;21913;52.456;13.634;2023-04-02T15:48:54;101177.78;;;12.08;74.68
25156;BME280;21913;52.456;13.634;2023-04-02T15:54:06;101177.78;;;12.08;74.81
25156;BME280;21913;52.456;13.634;2023-04-02T16:14:48;101206.34;;;12.08;74.84
25156;BME280;21913;52.456;13.634;2023-04-02T16:19:52;101205.41;;;12.06;74.87
25156;BME280;21913;52.456;13.634;2023-04-02T16:25:03;101215.84;;;12.07;74.98
25156;BME280;21913;52.456;13.634;2023-04-02T17:12:46;101266.00;;;12.08;75.00
25156;BME280;21913;52.456;13.634;2023-04-02T17:17:48;101273.72;;;12.06;74.95
25156;BME280;21913;52.456;13.634;2023-04-02T17:22:50;101276.34;;;12.06;74.82
25156;BME280;21913;52.456;13.634;2023-04-02T17:27:54;101278.06;;;12.06;74.79
25156;BME280;21913;52.456;13.634;2023-04-02T17:32:56;101287.56;;;12.05;74.86
25156;BME280;21913;52.456;13.634;2023-04-02T17:43:46;101310.06;;;12.06;74.86
25156;BME280;21913;52.456;13.634;2023-04-02T17:48:59;101314.38;;;12.06;74.72
25156;BME280;21913;52.456;13.634;2023-04-02T18:21:08;101342.75;;;11.95;66.12
25156;BME280;21913;52.456;13.634;2023-04-02T18:26:26;101356.19;;;12.26;65.78
25156;BME280;21913;52.456;13.634;2023-04-02T18:31:36;101358.34;;;12.57;65.61
25156;BME280;21913;52.456;13.634;2023-04-02T18:37:00;101362.19;;;12.88;65.57
25156;BME280;21913;52.456;13.634;2023-04-02T18:42:21;101368.50;;;13.12;65.65
25156;BME280;21913;52.456;13.634;2023-04-02T18:47:52;101371.31;;;13.27;65.80
25156;BME280;21913;52.456;13.634;2023-04-02T18:52:57;101377.47;;;13.40;65.88
25156;BME280;21913;52.456;13.634;2023-04-02T18:58:15;101381.91;;;13.49;65.91
25156;BME280;21913;52.456;13.634;2023-04-02T19:03:31;101390.63;;;13.55;66.00
25156;BME280;21913;52.456;13.634;2023-04-02T19:08:59;101397.63;;;13.62;66.09
25156;BME280;21913;52.456;13.634;2023-04-02T19:14:06;101402.88;;;13.67;66.02
25156;BME280;21913;52.456;13.634;2023-04-02T19:35:45;101433.31;;;13.76;66.41
25156;BME280;21913;52.456;13.634;2023-04-02T19:45:52;101440.25;;;13.77;66.57
25156;BME280;21913;52.456;13.634;2023-04-02T19:50:54;101448.91;;;13.76;66.55
25156;BME280;21913;52.456;13.634;2023-04-02T19:55:55;101453.25;;;13.77;66.59
25156;BME280;21913;52.456;13.634;2023-04-02T20:00:57;101452.34;;;13.75;66.68
25156;BME280;21913;52.456;13.634;2023-04-02T20:05:59;101458.41;;;13.74;66.79
25156;BME280;21913;52.456;13.634;2023-04-02T20:11:01;101454.94;;;13.73;66.96
25156;BME280;21913;52.456;13.634;2023-04-02T20:16:03;101459.28;;;13.73;67.06
25156;BME280;21913;52.456;13.634;2023-04-02T20:21:06;101465.34;;;13.72;67.07
25156;BME280;21913;52.456;13.634;2023-04-02T20:26:08;101467.03;;;13.69;66.74
25156;BME280;21913;52.456;13.634;2023-04-02T20:31:12;101477.44;;;13.68;67.19
25156;BME280;21913;52.456;13.634;2023-04-02T20:36:15;101484.34;;;13.66;67.15
25156;BME280;21913;52.456;13.634;2023-04-02T20:41:18;101483.50;;;13.65;67.14
25156;BME280;21913;52.456;13.634;2023-04-02T20:46:20;101495.59;;;13.63;67.22
25156;BME280;21913;52.456;13.634;2023-04-02T20:51:21;101493.84;;;13.62;67.49
25156;BME280;21913;52.456;13.634;2023-04-02T20:56:23;101492.09;;;13.60;67.51
25156;BME280;21913;52.456;13.634;2023-04-02T21:01:26;101503.38;;;13.60;67.49
25156;BME280;21913;52.456;13.634;2023-04-02T21:06:31;101505.91;;;13.57;67.48
25156;BME280;21913;52.456;13.634;2023-04-02T21:11:35;101514.59;;;13.56;67.61
25156;BME280;21913;52.456;13.634;2023-04-02T21:16:38;101514.56;;;13.55;67.75
25156;BME280;21913;52.456;13.634;2023-04-02T21:21:40;101521.50;;;13.54;67.72
25156;BME280;21913;52.456;13.634;2023-04-02T21:26:42;101527.53;;;13.52;67.68
25156;BME280;21913;52.456;13.634;2023-04-02T21:31:43;101530.13;;;13.50;67.75
25156;BME280;21913;52.456;13.634;2023-04-02T21:36:47;101532.72;;;13.50;67.80
25156;BME280;21913;52.456;13.634;2023-04-02T21:41:50;101534.41;;;13.47;67.84
25156;BME280;21913;52.456;13.634;2023-04-02T21:46:52;101543.94;;;13.46;68.01
25156;BME280;21913;52.456;13.634;2023-04-02T21:51:54;101552.59;;;13.45;67.90
25156;BME280;21913;52.456;13.634;2023-04-02T21:56:55;101549.13;;;13.43;68.05
25156;BME280;21913;52.456;13.634;2023-04-02T22:01:57;101550.81;;;13.41;67.99
25156;BME280;21913;52.456;13.634;2023-04-02T22:06:58;101554.25;;;13.40;67.91
25156;BME280;21913;52.456;13.634;2023-04-02T22:12:00;101553.38;;;13.38;68.05
25156;BME280;21913;52.456;13.634;2023-04-02T22:17:01;101562.91;;;13.37;68.09
25156;BME280;21913;52.456;13.634;2023-04-02T22:22:03;101565.47;;;13.36;68.04
25156;BME280;21913;52.456;13.634;2023-04-02T22:27:04;101573.25;;;13.36;68.16
25156;BME280;21913;52.456;13.634;2023-04-02T22:32:06;101586.25;;;13.34;68.14
25156;BME280;21913;52.456;13.634;2023-04-02T22:37:07;101587.09;;;13.33;68.20
25156;BME280;21913;52.456;13.634;2023-04-02T22:42:09;101595.78;;;13.32;68.34
25156;BME280;21913;52.456;13.634;2023-04-02T22:47:10;101590.53;;;13.31;68.21
25156;BME280;21913;52.456;13.634;2023-04-02T22:52:12;101603.50;;;13.29;68.20
25156;BME280;21913;52.456;13.634;2023-04-02T22:57:13;101619.09;;;13.28;68.29
25156;BME280;21913;52.456;13.634;2023-04-02T23:02:15;101619.94;;;13.27;68.37
25156;BME280;21913;52.456;13.634;2023-04-02T23:07:16;101633.78;;;13.26;68.29
25156;BME280;21913;52.456;13.634;2023-04-02T23:12:18;101634.63;;;13.25;68.36
25156;BME280;21913;52.456;13.634;2023-04-02T23:17:19;101637.22;;;13.23;68.47
25156;BME280;21913;52.456;13.634;2023-04-02T23:22:21;101638.06;;;13.22;68.32
25156;BME280;21913;52.456;13.634;2023-04-02T23:27:23;101647.59;;;13.22;68.37
25156;BME280;21913;52.456;13.634;2023-04-02T23:32:24;101648.41;;;13.21;68.26
25156;BME280;21913;52.456;13.634;2023-04-02T23:37:26;101646.63;;;13.18;68.33
25156;BME280;21913;52.456;13.634;2023-04-02T23:42:27;101642.28;;;13.17;68.49
25156;BME280;21913;52.456;13.634;2023-04-02T23:47:28;101654.41;;;13.16;68.41
25156;BME280;21913;52.456;13.634;2023-04-02T23:52:30;101654.41;;;13.16;68.33
25156;BME280;21913;52.456;13.634;2023-04-02T23:57:31;101656.09;;;13.14;68.33
